sensor_id;sensor_type;location;lat;lon;timestamp;temperature;humidity
14709;DHT22;7445;50.774;4.944;2022-11-20T07:57:43;5.40;99.90
14709;DHT22;7445;50.774;4.944;2022-11-20T08:00:10;5.50;99.90
14709;DHT22;7445;50.774;4.944;2022-11-20T08:02:38;5.50;99.90
14709;DHT22;7445;50.774;4.944;2022-11-20T08:05:04;5.50;99.90
14709;DHT22;7445;50.774;4.944;2022-11-20T08:07:36;5.60;99.90
14709;DHT22;7445;50.774;4.944;2022-11-20T08:10:02;5.60;99.90
14709;DHT22;7445;50.774;4.944;2022-11-20T08:12:27;5.60;99.90
14709;DHT22;7445;50.774;4.944;2022-11-20T08:15:11;5.70;99.90
14709;DHT22;7445;50.774;4.944;2022-11-20T08:17:38;5.70;99.90
14709;DHT22;7445;50.774;4.944;2022-11-20T08:20:04;5.70;99.90
14709;DHT22;7445;50.774;4.944;2022-11-20T08:22:30;5.70;99.90
14709;DHT22;7445;50.774;4.944;2022-11-20T08:24:55;5.80;99.90
14709;DHT22;7445;50.774;4.944;2022-11-20T08:27:21;5.80;99.90
14709;DHT22;7445;50.774;4.944;2022-11-20T08:29:46;5.90;99.90
14709;DHT22;7445;50.774;4.944;2022-11-20T08:32:12;6.00;99.90
14709;DHT22;7445;50.774;4.944;2022-11-20T08:34:37;6.00;99.90
14709;DHT22;7445;50.774;4.944;2022-11-20T08:37:03;6.00;99.90
14709;DHT22;7445;50.774;4.944;2022-11-20T08:39:29;6.10;99.90
14709;DHT22;7445;50.774;4.944;2022-11-20T08:41:54;6.10;99.90
14709;DHT22;7445;50.774;4.944;2022-11-20T08:44:20;6.10;99.90
14709;DHT22;7445;50.774;4.944;2022-11-20T08:46:46;6.20;99.90
14709;DHT22;7445;50.774;4.944;2022-11-20T08:49:13;6.20;99.90
14709;DHT22;7445;50.774;4.944;2022-11-20T08:51:40;6.30;99.90
14709;DHT22;7445;50.774;4.944;2022-11-20T08:54:06;6.30;99.90
14709;DHT22;7445;50.774;4.944;2022-11-20T08:56:32;6.30;99.90
14709;DHT22;7445;50.774;4.944;2022-11-20T08:58:58;6.30;99.90
14709;DHT22;7445;50.774;4.944;2022-11-20T09:01:27;6.40;99.90
14709;DHT22;7445;50.774;4.944;2022-11-20T09:03:57;6.40;99.90
14709;DHT22;7445;50.774;4.944;2022-11-20T09:06:23;6.50;99.90
14709;DHT22;7445;50.774;4.944;2022-11-20T09:08:55;6.50;99.90
14709;DHT22;7445;50.774;4.944;2022-11-20T09:11:21;6.60;99.90
14709;DHT22;7445;50.774;4.944;2022-11-20T09:13:47;6.70;99.90
14709;DHT22;7445;50.774;4.944;2022-11-20T09:16:18;6.70;99.90
14709;DHT22;7445;50.774;4.944;2022-11-20T09:18:45;6.80;99.90
14709;DHT22;7445;50.774;4.944;2022-11-20T09:21:12;6.90;99.90
14709;DHT22;7445;50.774;4.944;2022-11-20T09:23:39;7.00;99.90
14709;DHT22;7445;50.774;4.944;2022-11-20T09:26:07;7.10;99.90
14709;DHT22;7445;50.774;4.944;2022-11-20T09:28:36;7.10;99.90
14709;DHT22;7445;50.774;4.944;2022-11-20T09:31:11;7.20;99.90
14709;DHT22;7445;50.774;4.944;2022-11-20T09:33:44;7.20;99.90
14709;DHT22;7445;50.774;4.944;2022-11-20T09:36:10;7.20;99.90
14709;DHT22;7445;50.774;4.944;2022-11-20T09:38:37;7.30;99.90
14709;DHT22;7445;50.774;4.944;2022-11-20T09:41:06;7.40;99.90
14709;DHT22;7445;50.774;4.944;2022-11-20T09:43:58;7.40;99.90
14709;DHT22;7445;50.774;4.944;2022-11-20T09:46:33;7.50;99.90
14709;DHT22;7445;50.774;4.944;2022-11-20T09:52:31;7.60;99.90
14709;DHT22;7445;50.774;4.944;2022-11-20T09:55:01;7.70;99.90
14709;DHT22;7445;50.774;4.944;2022-11-20T09:57:35;7.70;99.90
14709;DHT22;7445;50.774;4.944;2022-11-20T10:00:04;7.90;99.90
14709;DHT22;7445;50.774;4.944;2022-11-20T10:05:31;8.00;99.90
14709;DHT22;7445;50.774;4.944;2022-11-20T10:08:17;8.10;99.90
14709;DHT22;7445;50.774;4.944;2022-11-20T10:10:47;8.20;99.90
14709;DHT22;7445;50.774;4.944;2022-11-20T10:13:39;8.30;99.90
14709;DHT22;7445;50.774;4.944;2022-11-20T10:16:12;8.30;99.90
14709;DHT22;7445;50.774;4.944;2022-11-20T10:22:08;8.40;99.90
14709;DHT22;7445;50.774;4.944;2022-11-20T10:24:56;8.40;99.90
14709;DHT22;7445;50.774;4.944;2022-11-20T10:30:18;8.50;99.90
14709;DHT22;7445;50.774;4.944;2022-11-20T10:33:04;8.50;99.90
14709;DHT22;7445;50.774;4.944;2022-11-20T10:35:38;8.60;99.90
14709;DHT22;7445;50.774;4.944;2022-11-20T10:38:14;8.60;99.90
14709;DHT22;7445;50.774;4.944;2022-11-20T10:40:44;8.70;99.90
14709;DHT22;7445;50.774;4.944;2022-11-20T10:43:28;8.60;99.90
14709;DHT22;7445;50.774;4.944;2022-11-20T10:46:06;8.70;99.90
14709;DHT22;7445;50.774;4.944;2022-11-20T10:48:33;8.70;99.90
14709;DHT22;7445;50.774;4.944;2022-11-20T11:01:49;9.00;99.90
14709;DHT22;7445;50.774;4.944;2022-11-20T11:06:57;9.10;99.90
14709;DHT22;7445;50.774;4.944;2022-11-20T11:09:46;9.00;99.90
14709;DHT22;7445;50.774;4.944;2022-11-20T11:12:13;9.10;99.90
14709;DHT22;7445;50.774;4.944;2022-11-20T11:14:57;9.10;99.90
14709;DHT22;7445;50.774;4.944;2022-11-20T11:17:31;9.20;99.90
14709;DHT22;7445;50.774;4.944;2022-11-20T11:20:16;9.30;99.90
14709;DHT22;7445;50.774;4.944;2022-11-20T11:22:57;9.30;99.90
14709;DHT22;7445;50.774;4.944;2022-11-20T11:27:56;9.30;99.90
14709;DHT22;7445;50.774;4.944;2022-11-20T11:30:23;9.40;99.90
14709;DHT22;7445;50.774;4.944;2022-11-20T11:33:08;9.40;99.90
14709;DHT22;7445;50.774;4.944;2022-11-20T11:35:45;9.50;99.90
14709;DHT22;7445;50.774;4.944;2022-11-20T11:38:17;9.60;99.90
14709;DHT22;7445;50.774;4.944;2022-11-20T11:40:44;9.70;99.90
14709;DHT22;7445;50.774;4.944;2022-11-20T11:43:22;9.70;99.90
14709;DHT22;7445;50.774;4.944;2022-11-20T11:46:29;9.70;99.90
14709;DHT22;7445;50.774;4.944;2022-11-20T11:49:01;9.80;99.90
14709;DHT22;7445;50.774;4.944;2022-11-20T11:51:34;9.80;99.90
14709;DHT22;7445;50.774;4.944;2022-11-20T11:54:11;9.80;99.90
14709;DHT22;7445;50.774;4.944;2022-11-20T11:56:42;9.80;99.90
14709;DHT22;7445;50.774;4.944;2022-11-20T11:59:15;9.70;99.90
14709;DHT22;7445;50.774;4.944;2022-11-20T12:02:01;9.70;99.90
14709;DHT22;7445;50.774;4.944;2022-11-20T12:04:52;9.70;99.90
14709;DHT22;7445;50.774;4.944;2022-11-20T12:07:29;9.60;99.90
14709;DHT22;7445;50.774;4.944;2022-11-20T12:09:58;9.60;99.90
14709;DHT22;7445;50.774;4.944;2022-11-20T12:12:34;9.60;99.90
14709;DHT22;7445;50.774;4.944;2022-11-20T12:15:06;9.70;99.90
14709;DHT22;7445;50.774;4.944;2022-11-20T12:17:42;9.70;99.90
14709;DHT22;7445;50.774;4.944;2022-11-20T12:20:34;9.70;99.90
14709;DHT22;7445;50.774;4.944;2022-11-20T12:26:39;9.60;99.90
14709;DHT22;7445;50.774;4.944;2022-11-20T12:40:08;9.10;99.90
14709;DHT22;7445;50.774;4.944;2022-11-20T12:46:22;8.90;99.90
14709;DHT22;7445;50.774;4.944;2022-11-20T12:57:23;8.50;99.90
14709;DHT22;7445;50.774;4.944;2022-11-20T13:00:14;8.50;99.90
14709;DHT22;7445;50.774;4.944;2022-11-20T13:03:06;8.50;99.90
14709;DHT22;7445;50.774;4.944;2022-11-20T13:06:05;8.50;99.90
14709;DHT22;7445;50.774;4.944;2022-11-20T13:08:50;8.40;99.90
14709;DHT22;7445;50.774;4.944;2022-11-20T13:11:19;8.40;99.90
14709;DHT22;7445;50.774;4.944;2022-11-20T13:16:54;8.50;99.90
14709;DHT22;7445;50.774;4.944;2022-11-20T13:19:23;8.40;99.90
14709;DHT22;7445;50.774;4.944;2022-11-20T13:21:50;8.40;99.90
14709;DHT22;7445;50.774;4.944;2022-11-20T13:26:45;8.40;99.90
14709;DHT22;7445;50.774;4.944;2022-11-20T13:29:18;8.40;99.90
14709;DHT22;7445;50.774;4.944;2022-11-20T13:31:48;8.40;99.90
14709;DHT22;7445;50.774;4.944;2022-11-20T13:34:23;8.40;99.90
14709;DHT22;7445;50.774;4.944;2022-11-20T13:36:56;8.50;99.90
14709;DHT22;7445;50.774;4.944;2022-11-20T13:39:32;8.50;99.90
14709;DHT22;7445;50.774;4.944;2022-11-20T13:42:25;8.50;99.90
14709;DHT22;7445;50.774;4.944;2022-11-20T13:44:54;8.40;99.90
14709;DHT22;7445;50.774;4.944;2022-11-20T13:47:24;8.50;99.90
14709;DHT22;7445;50.774;4.944;2022-11-20T13:49:52;8.40;99.90
14709;DHT22;7445;50.774;4.944;2022-11-20T14:00:18;8.40;99.90
14709;DHT22;7445;50.774;4.944;2022-11-20T14:05:36;8.40;99.90
14709;DHT22;7445;50.774;4.944;2022-11-20T14:08:23;8.40;99.90
14709;DHT22;7445;50.774;4.944;2022-11-20T14:11:03;8.30;99.90
14709;DHT22;7445;50.774;4.944;2022-11-20T14:13:29;8.30;99.90
14709;DHT22;7445;50.774;4.944;2022-11-20T14:15:59;8.30;99.90
14709;DHT22;7445;50.774;4.944;2022-11-20T14:18:26;8.30;99.90
14709;DHT22;7445;50.774;4.944;2022-11-20T14:20:52;8.30;99.90
14709;DHT22;7445;50.774;4.944;2022-11-20T14:23:27;8.40;99.90
14709;DHT22;7445;50.774;4.944;2022-11-20T14:25:55;8.30;99.90
14709;DHT22;7445;50.774;4.944;2022-11-20T14:28:27;8.30;99.90
14709;DHT22;7445;50.774;4.944;2022-11-20T14:30:54;8.30;99.90
14709;DHT22;7445;50.774;4.944;2022-11-20T14:33:38;8.30;99.90
14709;DHT22;7445;50.774;4.944;2022-11-20T14:36:15;8.30;99.90
14709;DHT22;7445;50.774;4.944;2022-11-20T14:38:54;8.30;99.90
14709;DHT22;7445;50.774;4.944;2022-11-20T14:41:24;8.30;99.90
14709;DHT22;7445;50.774;4.944;2022-11-20T14:44:09;8.30;99.90
14709;DHT22;7445;50.774;4.944;2022-11-20T14:46:45;8.30;99.90
14709;DHT22;7445;50.774;4.944;2022-11-20T14:49:32;8.30;99.90
14709;DHT22;7445;50.774;4.944;2022-11-20T14:52:26;8.20;99.90
14709;DHT22;7445;50.774;4.944;2022-11-20T14:54:57;8.20;99.90
14709;DHT22;7445;50.774;4.944;2022-11-20T14:57:28;8.20;99.90
14709;DHT22;7445;50.774;4.944;2022-11-20T15:02:31;8.10;99.90
14709;DHT22;7445;50.774;4.944;2022-11-20T15:04:58;8.10;99.90
14709;DHT22;7445;50.774;4.944;2022-11-20T15:07:26;8.10;99.90
14709;DHT22;7445;50.774;4.944;2022-11-20T15:10:05;8.10;99.90
14709;DHT22;7445;50.774;4.944;2022-11-20T15:12:34;8.10;99.90
14709;DHT22;7445;50.774;4.944;2022-11-20T15:15:01;8.10;99.90
14709;DHT22;7445;50.774;4.944;2022-11-20T15:17:30;8.10;99.90
14709;DHT22;7445;50.774;4.944;2022-11-20T15:19:56;8.10;99.90
14709;DHT22;7445;50.774;4.944;2022-11-20T15:22:23;8.20;99.90
14709;DHT22;7445;50.774;4.944;2022-11-20T15:24:49;8.20;99.90
14709;DHT22;7445;50.774;4.944;2022-11-20T15:27:14;8.20;99.90
14709;DHT22;7445;50.774;4.944;2022-11-20T15:29:41;8.20;99.90
14709;DHT22;7445;50.774;4.944;2022-11-20T15:32:09;8.20;99.90
14709;DHT22;7445;50.774;4.944;2022-11-20T15:34:35;8.20;99.90
14709;DHT22;7445;50.774;4.944;2022-11-20T15:37:02;8.20;99.90
14709;DHT22;7445;50.774;4.944;2022-11-20T15:39:30;8.20;99.90
14709;DHT22;7445;50.774;4.944;2022-11-20T15:41:56;8.20;99.90
14709;DHT22;7445;50.774;4.944;2022-11-20T15:44:24;8.20;99.90
14709;DHT22;7445;50.774;4.944;2022-11-20T15:46:54;8.20;99.90
14709;DHT22;7445;50.774;4.944;2022-11-20T15:49:19;8.20;99.90
14709;DHT22;7445;50.774;4.944;2022-11-20T15:51:49;8.20;99.90
14709;DHT22;7445;50.774;4.944;2022-11-20T15:54:17;8.20;99.90
14709;DHT22;7445;50.774;4.944;2022-11-20T15:56:45;8.20;99.90
14709;DHT22;7445;50.774;4.944;2022-11-20T15:59:12;8.30;99.90
14709;DHT22;7445;50.774;4.944;2022-11-20T16:01:39;8.30;99.90
14709;DHT22;7445;50.774;4.944;2022-11-20T16:04:10;8.20;99.90
14709;DHT22;7445;50.774;4.944;2022-11-20T16:06:36;8.30;99.90
14709;DHT22;7445;50.774;4.944;2022-11-20T16:09:01;8.30;99.90
14709;DHT22;7445;50.774;4.944;2022-11-20T16:11:27;8.30;99.90
14709;DHT22;7445;50.774;4.944;2022-11-20T16:13:53;8.30;99.90
14709;DHT22;7445;50.774;4.944;2022-11-20T16:16:38;8.20;99.90
14709;DHT22;7445;50.774;4.944;2022-11-20T16:19:05;8.20;99.90
14709;DHT22;7445;50.774;4.944;2022-11-20T16:21:31;8.20;99.90
14709;DHT22;7445;50.774;4.944;2022-11-20T16:24:02;8.20;99.90
14709;DHT22;7445;50.774;4.944;2022-11-20T16:26:28;8.20;99.90
14709;DHT22;7445;50.774;4.944;2022-11-20T16:29:05;8.20;99.90
14709;DHT22;7445;50.774;4.944;2022-11-20T16:31:32;8.10;99.90
14709;DHT22;7445;50.774;4.944;2022-11-20T16:34:01;8.10;99.90
14709;DHT22;7445;50.774;4.944;2022-11-20T16:36:28;8.10;99.90
14709;DHT22;7445;50.774;4.944;2022-11-20T16:38:59;8.10;99.90
14709;DHT22;7445;50.774;4.944;2022-11-20T16:41:29;8.10;99.90
14709;DHT22;7445;50.774;4.944;2022-11-20T16:43:56;8.10;99.90
14709;DHT22;7445;50.774;4.944;2022-11-20T16:46:24;8.00;99.90
14709;DHT22;7445;50.774;4.944;2022-11-20T16:49:13;7.90;99.90
14709;DHT22;7445;50.774;4.944;2022-11-20T16:51:39;7.80;99.90
14709;DHT22;7445;50.774;4.944;2022-11-20T16:54:07;7.70;99.90
14709;DHT22;7445;50.774;4.944;2022-11-20T16:56:33;7.60;99.90
14709;DHT22;7445;50.774;4.944;2022-11-20T16:59:00;7.60;99.90
14709;DHT22;7445;50.774;4.944;2022-11-20T17:01:28;7.60;99.90
14709;DHT22;7445;50.774;4.944;2022-11-20T17:04:00;7.50;99.90
14709;DHT22;7445;50.774;4.944;2022-11-20T17:06:30;7.50;99.90
14709;DHT22;7445;50.774;4.944;2022-11-20T17:09:01;7.60;99.90
14709;DHT22;7445;50.774;4.944;2022-11-20T17:12:06;7.60;99.90
14709;DHT22;7445;50.774;4.944;2022-11-20T17:14:37;7.70;99.90
14709;DHT22;7445;50.774;4.944;2022-11-20T17:17:09;7.80;99.90
14709;DHT22;7445;50.774;4.944;2022-11-20T17:19:35;7.80;99.90
14709;DHT22;7445;50.774;4.944;2022-11-20T17:22:01;7.90;99.90
14709;DHT22;7445;50.774;4.944;2022-11-20T17:24:27;7.80;99.90
14709;DHT22;7445;50.774;4.944;2022-11-20T17:26:53;7.80;99.90
14709;DHT22;7445;50.774;4.944;2022-11-20T17:29:18;7.70;99.90
14709;DHT22;7445;50.774;4.944;2022-11-20T17:31:49;7.70;99.90
14709;DHT22;7445;50.774;4.944;2022-11-20T17:34:15;7.60;99.90
14709;DHT22;7445;50.774;4.944;2022-11-20T17:36:41;7.60;99.90
14709;DHT22;7445;50.774;4.944;2022-11-20T17:39:12;7.50;99.90
14709;DHT22;7445;50.774;4.944;2022-11-20T17:41:39;7.50;99.90
14709;DHT22;7445;50.774;4.944;2022-11-20T17:44:05;7.60;99.90
14709;DHT22;7445;50.774;4.944;2022-11-20T17:46:32;7.60;99.90
14709;DHT22;7445;50.774;4.944;2022-11-20T17:48:59;7.60;99.90
14709;DHT22;7445;50.774;4.944;2022-11-20T17:51:27;7.60;99.90
14709;DHT22;7445;50.774;4.944;2022-11-20T17:53:58;7.60;99.90
14709;DHT22;7445;50.774;4.944;2022-11-20T17:56:25;7.70;99.90
14709;DHT22;7445;50.774;4.944;2022-11-20T17:59:11;7.80;99.90
14709;DHT22;7445;50.774;4.944;2022-11-20T18:01:38;7.80;99.90
14709;DHT22;7445;50.774;4.944;2022-11-20T18:04:05;7.80;99.90
14709;DHT22;7445;50.774;4.944;2022-11-20T18:06:31;7.80;99.90
14709;DHT22;7445;50.774;4.944;2022-11-20T18:08:58;7.70;99.90
14709;DHT22;7445;50.774;4.944;2022-11-20T18:11:26;7.60;99.90
14709;DHT22;7445;50.774;4.944;2022-11-20T18:13:57;7.40;99.90
14709;DHT22;7445;50.774;4.944;2022-11-20T18:16:50;7.40;99.90
14709;DHT22;7445;50.774;4.944;2022-11-20T18:19:19;7.30;99.90
14709;DHT22;7445;50.774;4.944;2022-11-20T18:21:45;7.30;99.90
14709;DHT22;7445;50.774;4.944;2022-11-20T18:24:11;7.30;99.90
14709;DHT22;7445;50.774;4.944;2022-11-20T18:26:37;7.20;99.90
14709;DHT22;7445;50.774;4.944;2022-11-20T18:29:04;7.10;99.90
14709;DHT22;7445;50.774;4.944;2022-11-20T18:31:29;7.10;99.90
14709;DHT22;7445;50.774;4.944;2022-11-20T18:33:55;7.10;99.90
14709;DHT22;7445;50.774;4.944;2022-11-20T18:36:24;7.20;99.90
14709;DHT22;7445;50.774;4.944;2022-11-20T18:38:51;7.10;99.90
14709;DHT22;7445;50.774;4.944;2022-11-20T18:41:19;7.10;99.90
14709;DHT22;7445;50.774;4.944;2022-11-20T18:44:07;7.20;99.90
14709;DHT22;7445;50.774;4.944;2022-11-20T18:46:54;7.10;99.90
14709;DHT22;7445;50.774;4.944;2022-11-20T18:49:20;7.10;99.90
14709;DHT22;7445;50.774;4.944;2022-11-20T18:51:46;7.00;99.90
14709;DHT22;7445;50.774;4.944;2022-11-20T18:54:12;7.00;99.90
14709;DHT22;7445;50.774;4.944;2022-11-20T18:56:39;7.00;99.90
14709;DHT22;7445;50.774;4.944;2022-11-20T18:59:08;7.00;99.90
14709;DHT22;7445;50.774;4.944;2022-11-20T19:01:35;7.00;99.90
14709;DHT22;7445;50.774;4.944;2022-11-20T19:04:11;6.90;99.90
14709;DHT22;7445;50.774;4.944;2022-11-20T19:06:38;6.90;99.90
14709;DHT22;7445;50.774;4.944;2022-11-20T19:09:04;6.80;99.90
14709;DHT22;7445;50.774;4.944;2022-11-20T19:11:30;6.80;99.90
14709;DHT22;7445;50.774;4.944;2022-11-20T19:13:56;6.70;99.90
14709;DHT22;7445;50.774;4.944;2022-11-20T19:16:23;6.70;99.90
14709;DHT22;7445;50.774;4.944;2022-11-20T19:18:49;6.60;99.90
14709;DHT22;7445;50.774;4.944;2022-11-20T19:21:17;6.70;99.90
14709;DHT22;7445;50.774;4.944;2022-11-20T19:23:47;6.60;99.90
14709;DHT22;7445;50.774;4.944;2022-11-20T19:26:13;6.70;99.90
14709;DHT22;7445;50.774;4.944;2022-11-20T19:28:38;6.70;99.90
14709;DHT22;7445;50.774;4.944;2022-11-20T19:31:24;6.70;99.90
14709;DHT22;7445;50.774;4.944;2022-11-20T19:34:01;6.70;99.90
14709;DHT22;7445;50.774;4.944;2022-11-20T19:36:32;6.80;99.90
14709;DHT22;7445;50.774;4.944;2022-11-20T19:38:58;6.90;99.90
14709;DHT22;7445;50.774;4.944;2022-11-20T19:41:27;7.00;99.90
14709;DHT22;7445;50.774;4.944;2022-11-20T19:43:59;7.00;99.90
14709;DHT22;7445;50.774;4.944;2022-11-20T19:46:26;7.00;99.90
14709;DHT22;7445;50.774;4.944;2022-11-20T19:48:53;7.00;99.90
14709;DHT22;7445;50.774;4.944;2022-11-20T19:51:24;7.00;99.90
14709;DHT22;7445;50.774;4.944;2022-11-20T19:53:50;7.00;99.90
14709;DHT22;7445;50.774;4.944;2022-11-20T19:56:16;7.00;99.90
14709;DHT22;7445;50.774;4.944;2022-11-20T19:58:42;7.00;99.90
14709;DHT22;7445;50.774;4.944;2022-11-20T20:01:09;6.90;99.90
14709;DHT22;7445;50.774;4.944;2022-11-20T20:03:36;6.90;99.90
14709;DHT22;7445;50.774;4.944;2022-11-20T20:06:04;6.90;99.90
14709;DHT22;7445;50.774;4.944;2022-11-20T20:08:31;6.90;99.90
14709;DHT22;7445;50.774;4.944;2022-11-20T20:10:57;6.90;99.90
14709;DHT22;7445;50.774;4.944;2022-11-20T20:13:24;6.90;99.90
14709;DHT22;7445;50.774;4.944;2022-11-20T20:15:49;6.90;99.90
14709;DHT22;7445;50.774;4.944;2022-11-20T20:18:15;6.90;99.90
14709;DHT22;7445;50.774;4.944;2022-11-20T20:20:45;6.90;99.90
14709;DHT22;7445;50.774;4.944;2022-11-20T20:23:11;7.00;99.90
14709;DHT22;7445;50.774;4.944;2022-11-20T20:25:36;7.00;99.90
14709;DHT22;7445;50.774;4.944;2022-11-20T20:28:03;7.00;99.90
14709;DHT22;7445;50.774;4.944;2022-11-20T20:30:29;7.00;99.90
14709;DHT22;7445;50.774;4.944;2022-11-20T20:32:54;6.90;99.90
14709;DHT22;7445;50.774;4.944;2022-11-20T20:35:20;7.00;99.90
14709;DHT22;7445;50.774;4.944;2022-11-20T20:37:46;6.90;99.90
14709;DHT22;7445;50.774;4.944;2022-11-20T20:40:12;6.90;99.90
14709;DHT22;7445;50.774;4.944;2022-11-20T20:42:37;6.90;99.90
14709;DHT22;7445;50.774;4.944;2022-11-20T20:45:03;7.00;99.90
14709;DHT22;7445;50.774;4.944;2022-11-20T20:47:41;7.00;99.90
14709;DHT22;7445;50.774;4.944;2022-11-20T20:50:09;7.00;99.90
14709;DHT22;7445;50.774;4.944;2022-11-20T20:52:36;7.00;99.90
14709;DHT22;7445;50.774;4.944;2022-11-20T20:55:02;7.00;99.90
14709;DHT22;7445;50.774;4.944;2022-11-20T20:57:28;7.00;99.90
14709;DHT22;7445;50.774;4.944;2022-11-20T20:59:54;7.00;99.90
14709;DHT22;7445;50.774;4.944;2022-11-20T21:02:22;6.90;99.90
14709;DHT22;7445;50.774;4.944;2022-11-20T21:04:48;6.80;99.90
14709;DHT22;7445;50.774;4.944;2022-11-20T21:07:15;6.80;99.90
14709;DHT22;7445;50.774;4.944;2022-11-20T21:09:41;6.70;99.90
14709;DHT22;7445;50.774;4.944;2022-11-20T21:12:08;6.70;99.90
14709;DHT22;7445;50.774;4.944;2022-11-20T21:14:36;6.60;99.90
14709;DHT22;7445;50.774;4.944;2022-11-20T21:17:02;6.60;99.90
14709;DHT22;7445;50.774;4.944;2022-11-20T21:19:28;6.50;99.90
14709;DHT22;7445;50.774;4.944;2022-11-20T21:21:54;6.50;99.90
14709;DHT22;7445;50.774;4.944;2022-11-20T21:24:32;6.50;99.90
14709;DHT22;7445;50.774;4.944;2022-11-20T21:27:00;6.40;99.90
14709;DHT22;7445;50.774;4.944;2022-11-20T21:29:31;6.40;99.90
14709;DHT22;7445;50.774;4.944;2022-11-20T21:31:58;6.40;99.90
14709;DHT22;7445;50.774;4.944;2022-11-20T21:34:24;6.30;99.90
14709;DHT22;7445;50.774;4.944;2022-11-20T21:36:50;6.30;99.90
14709;DHT22;7445;50.774;4.944;2022-11-20T21:39:17;6.30;99.90
14709;DHT22;7445;50.774;4.944;2022-11-20T21:41:44;6.30;99.90
14709;DHT22;7445;50.774;4.944;2022-11-20T21:44:12;6.20;99.90
14709;DHT22;7445;50.774;4.944;2022-11-20T21:46:41;6.20;99.90
14709;DHT22;7445;50.774;4.944;2022-11-20T21:49:09;6.10;99.90
14709;DHT22;7445;50.774;4.944;2022-11-20T21:51:35;6.20;99.90
14709;DHT22;7445;50.774;4.944;2022-11-20T21:54:01;6.20;99.90
14709;DHT22;7445;50.774;4.944;2022-11-20T21:56:28;6.10;99.90
14709;DHT22;7445;50.774;4.944;2022-11-20T21:58:54;6.10;99.90
14709;DHT22;7445;50.774;4.944;2022-11-20T22:01:24;6.10;99.90
14709;DHT22;7445;50.774;4.944;2022-11-20T22:03:53;6.00;99.90
14709;DHT22;7445;50.774;4.944;2022-11-20T22:06:20;6.00;99.90
14709;DHT22;7445;50.774;4.944;2022-11-20T22:08:46;6.00;99.90
14709;DHT22;7445;50.774;4.944;2022-11-20T22:11:16;5.90;99.90
14709;DHT22;7445;50.774;4.944;2022-11-20T22:13:42;5.90;99.90
14709;DHT22;7445;50.774;4.944;2022-11-20T22:16:26;5.90;99.90
14709;DHT22;7445;50.774;4.944;2022-11-20T22:18:54;5.90;99.90
14709;DHT22;7445;50.774;4.944;2022-11-20T22:21:22;5.90;99.90
14709;DHT22;7445;50.774;4.944;2022-11-20T22:23:55;5.90;99.90
14709;DHT22;7445;50.774;4.944;2022-11-20T22:26:23;5.90;99.90
14709;DHT22;7445;50.774;4.944;2022-11-20T22:28:50;5.80;99.90
14709;DHT22;7445;50.774;4.944;2022-11-20T22:31:17;5.80;99.90
14709;DHT22;7445;50.774;4.944;2022-11-20T22:33:43;5.80;99.90
14709;DHT22;7445;50.774;4.944;2022-11-20T22:36:17;5.80;99.90
14709;DHT22;7445;50.774;4.944;2022-11-20T22:38:43;5.70;99.90
14709;DHT22;7445;50.774;4.944;2022-11-20T22:41:14;5.80;99.90
14709;DHT22;7445;50.774;4.944;2022-11-20T22:43:44;5.70;99.90
14709;DHT22;7445;50.774;4.944;2022-11-20T22:46:16;5.70;99.90
14709;DHT22;7445;50.774;4.944;2022-11-20T22:48:51;5.70;99.90
14709;DHT22;7445;50.774;4.944;2022-11-20T22:51:18;5.70;99.90
14709;DHT22;7445;50.774;4.944;2022-11-20T22:53:45;5.70;99.90
14709;DHT22;7445;50.774;4.944;2022-11-20T22:56:12;5.70;99.90
14709;DHT22;7445;50.774;4.944;2022-11-20T22:58:39;5.70;99.90
14709;DHT22;7445;50.774;4.944;2022-11-20T23:03:35;5.70;99.90
14709;DHT22;7445;50.774;4.944;2022-11-20T23:06:04;5.70;99.90
14709;DHT22;7445;50.774;4.944;2022-11-20T23:08:39;5.70;99.90
14709;DHT22;7445;50.774;4.944;2022-11-20T23:11:17;5.70;99.90
14709;DHT22;7445;50.774;4.944;2022-11-20T23:13:44;5.70;99.90
14709;DHT22;7445;50.774;4.944;2022-11-20T23:16:15;5.60;99.90
14709;DHT22;7445;50.774;4.944;2022-11-20T23:18:45;5.60;99.90
14709;DHT22;7445;50.774;4.944;2022-11-20T23:21:15;5.60;99.90
14709;DHT22;7445;50.774;4.944;2022-11-20T23:23:42;5.70;99.90
14709;DHT22;7445;50.774;4.944;2022-11-20T23:26:10;5.60;99.90
14709;DHT22;7445;50.774;4.944;2022-11-20T23:28:37;5.60;99.90
14709;DHT22;7445;50.774;4.944;2022-11-20T23:31:03;5.60;99.90
14709;DHT22;7445;50.774;4.944;2022-11-20T23:33:29;5.60;99.90
14709;DHT22;7445;50.774;4.944;2022-11-20T23:35:55;5.60;99.90
14709;DHT22;7445;50.774;4.944;2022-11-20T23:38:20;5.60;99.90
14709;DHT22;7445;50.774;4.944;2022-11-20T23:40:50;5.60;99.90
14709;DHT22;7445;50.774;4.944;2022-11-20T23:43:16;5.60;99.90
14709;DHT22;7445;50.774;4.944;2022-11-20T23:45:50;5.50;99.90
14709;DHT22;7445;50.774;4.944;2022-11-20T23:48:16;5.50;99.90
14709;DHT22;7445;50.774;4.944;2022-11-20T23:50:43;5.60;99.90
14709;DHT22;7445;50.774;4.944;2022-11-20T23:53:10;5.60;99.90
14709;DHT22;7445;50.774;4.944;2022-11-20T23:55:36;5.60;99.90
14709;DHT22;7445;50.774;4.944;2022-11-20T23:58:03;5.70;99.90
